Time;durP1;ratioP1;P1;durP2;ratioP2;P2;SDS_P1;SDS_P2;PMS_P1;PMS_P2;Temp;Humidity;BMP_temperature;BMP_pressure;BME280_temperature;BME280_humidity;BME280_pressure;Samples;Min_cycle;Max_cycle;Signal;HPM_P1;HPM_P2
2021/12/21 00:01:27;;;;;;;13.87;9.10;;;1.60;87.90;;;;;;6250528;28;20471;-63
2021/12/21 00:04:31;;;;;;;10.23;7.80;;;1.60;88.30;;;;;;6250019;28;20474;-63
2021/12/21 00:07:35;;;;;;;11.33;7.20;;;1.50;88.30;;;;;;6250514;28;20490;-63
2021/12/21 00:10:40;;;;;;;10.73;7.60;;;1.50;88.60;;;;;;6262027;28;20473;-64
2021/12/21 00:13:57;;;;;;;9.07;7.87;;;1.50;88.60;;;;;;6269971;28;20482;-63
2021/12/21 00:17:15;;;;;;;8.53;7.60;;;1.40;88.60;;;;;;6251789;28;20451;-63
2021/12/21 00:20:34;;;;;;;17.73;9.13;;;1.40;88.90;;;;;;6250571;28;20482;-63
2021/12/21 00:23:41;;;;;;;9.63;8.73;;;1.30;89.30;;;;;;6249856;28;20475;-63
2021/12/21 00:26:44;;;;;;;9.30;8.30;;;1.30;89.40;;;;;;6249784;28;20479;-63
2021/12/21 00:29:47;;;;;;;8.50;7.50;;;1.30;89.90;;;;;;6250371;28;20537;-63
2021/12/21 00:32:51;;;;;;;14.67;8.10;;;1.20;90.00;;;;;;6250007;28;20475;-63
2021/12/21 00:35:54;;;;;;;9.63;7.20;;;1.30;90.00;;;;;;6249781;28;20470;-63
2021/12/21 00:39:00;;;;;;;12.53;7.60;;;1.20;90.00;;;;;;6250040;28;20812;-63
2021/12/21 00:42:04;;;;;;;8.40;7.40;;;1.20;90.20;;;;;;6249832;28;20474;-63
2021/12/21 00:45:08;;;;;;;11.13;7.23;;;1.20;90.30;;;;;;6249906;28;20845;-63
2021/12/21 00:48:15;;;;;;;8.90;7.40;;;1.10;90.40;;;;;;6249554;28;20491;-63
2021/12/21 00:51:20;;;;;;;8.67;6.80;;;1.10;90.70;;;;;;6249758;28;20474;-63
2021/12/21 00:54:23;;;;;;;10.47;8.37;;;1.10;91.10;;;;;;6250293;28;20475;-63
2021/12/21 00:57:26;;;;;;;11.33;8.40;;;1.00;91.30;;;;;;6249927;28;20474;-63
2021/12/21 01:00:30;;;;;;;10.87;7.73;;;0.90;91.90;;;;;;6254589;28;20462;-63
2021/12/21 01:03:35;;;;;;;13.20;8.77;;;0.90;91.70;;;;;;6254038;28;20486;-63
2021/12/21 01:06:43;;;;;;;10.47;7.20;;;0.80;91.90;;;;;;6254413;28;20482;-64
2021/12/21 01:13:24;;;;;;;8.37;6.77;;;0.80;92.40;;;;;;6278664;28;20991;-63
2021/12/21 01:16:35;;;;;;;8.37;6.90;;;0.80;92.80;;;;;;6260664;28;20971;-63
2021/12/21 01:19:43;;;;;;;10.00;7.37;;;0.80;92.50;;;;;;6254059;28;20482;-63
2021/12/21 01:23:05;;;;;;;9.47;6.70;;;0.80;92.50;;;;;;6254262;28;20482;-63
2021/12/21 01:26:15;;;;;;;9.23;8.03;;;0.80;92.40;;;;;;6253755;28;20459;-63
2021/12/21 01:29:26;;;;;;;8.27;6.97;;;0.80;92.60;;;;;;6253447;28;20466;-63
2021/12/21 01:32:43;;;;;;;9.67;7.00;;;0.70;92.80;;;;;;6254034;28;20769;-63
2021/12/21 01:35:51;;;;;;;9.27;7.40;;;0.80;93.00;;;;;;6254015;28;20530;-63
2021/12/21 01:39:01;;;;;;;10.60;7.43;;;0.70;93.00;;;;;;6253761;28;20462;-64
2021/12/21 01:42:16;;;;;;;10.03;6.97;;;0.70;93.00;;;;;;6253495;28;20915;-64
2021/12/21 01:52:05;;;;;;;12.30;8.03;;;0.60;93.40;;;;;;6253401;28;20566;-63
2021/12/21 01:55:09;;;;;;;10.77;7.90;;;0.60;93.70;;;;;;6253480;28;20497;-64
2021/12/21 01:58:12;;;;;;;11.27;8.27;;;0.70;94.00;;;;;;6253079;28;20501;-64
2021/12/21 02:01:17;;;;;;;10.10;7.47;;;0.60;94.10;;;;;;6253227;28;20550;-64
2021/12/21 02:04:20;;;;;;;16.23;7.60;;;0.60;94.20;;;;;;6252678;28;20852;-64
2021/12/21 02:07:25;;;;;;;7.60;6.83;;;0.50;94.60;;;;;;6253048;28;20482;-64
2021/12/21 02:10:29;;;;;;;8.40;7.50;;;0.40;94.70;;;;;;6263095;28;20496;-64
2021/12/21 02:13:36;;;;;;;9.27;6.63;;;0.40;94.80;;;;;;6277709;28;20787;-64
2021/12/21 02:16:51;;;;;;;8.93;6.20;;;0.40;95.00;;;;;;6257644;28;20463;-64
2021/12/21 02:20:05;;;;;;;9.60;7.00;;;0.40;95.10;;;;;;6253071;28;20447;-64
2021/12/21 02:23:12;;;;;;;9.53;6.60;;;0.40;95.30;;;;;;6252797;28;20474;-64
2021/12/21 02:26:37;;;;;;;10.97;8.07;;;0.30;95.30;;;;;;6252760;28;20536;-64
2021/12/21 02:29:40;;;;;;;11.47;9.10;;;0.30;95.50;;;;;;6252563;28;20471;-64
2021/12/21 02:32:43;;;;;;;15.43;9.00;;;0.30;95.50;;;;;;6252884;28;20474;-64
2021/12/21 02:35:48;;;;;;;10.17;9.17;;;0.30;95.50;;;;;;6252378;28;20463;-64
2021/12/21 02:38:51;;;;;;;12.13;7.70;;;0.30;95.50;;;;;;6252568;28;20471;-64
2021/12/21 02:41:55;;;;;;;11.13;7.67;;;0.20;95.60;;;;;;6253255;28;20478;-64
2021/12/21 02:44:58;;;;;;;12.53;8.93;;;0.30;95.90;;;;;;6252385;28;20474;-64
2021/12/21 02:48:01;;;;;;;7.80;7.10;;;0.20;96.00;;;;;;6252022;28;20478;-64
2021/12/21 02:51:06;;;;;;;9.70;7.90;;;0.30;96.00;;;;;;6252124;28;20481;-64
2021/12/21 02:54:11;;;;;;;7.87;7.07;;;0.30;96.00;;;;;;6252267;28;20505;-64
2021/12/21 02:57:14;;;;;;;14.20;8.10;;;0.20;96.00;;;;;;6252047;28;20467;-64
2021/12/21 03:00:18;;;;;;;11.00;7.60;;;0.20;96.00;;;;;;6251688;28;20613;-64
2021/12/21 03:03:21;;;;;;;9.87;8.10;;;0.20;95.80;;;;;;6251332;28;20479;-64
2021/12/21 03:06:59;;;;;;;10.20;7.40;;;0.10;96.10;;;;;;6251561;28;20475;-64
2021/12/21 03:10:02;;;;;;;9.70;8.70;;;0.20;96.20;;;;;;6257920;28;20470;-64
2021/12/21 03:16:26;;;;;;;9.33;8.50;;;0.10;96.20;;;;;;6257735;28;20467;-64
2021/12/21 03:19:29;;;;;;;9.00;7.73;;;0.10;96.30;;;;;;6251388;28;20467;-64
2021/12/21 03:22:33;;;;;;;8.30;7.43;;;0.00;96.60;;;;;;6241149;28;20483;-64
2021/12/21 03:25:37;;;;;;;7.70;6.90;;;0.00;96.50;;;;;;6251127;28;20471;-64
2021/12/21 03:28:40;;;;;;;9.63;7.37;;;0.00;96.70;;;;;;6251282;28;20804;-64
2021/12/21 03:31:43;;;;;;;11.83;7.83;;;0.10;96.90;;;;;;6251237;28;20498;-65
2021/12/21 03:34:47;;;;;;;8.00;7.20;;;0.10;97.00;;;;;;6251187;28;20974;-64
2021/12/21 03:37:51;;;;;;;10.80;7.47;;;0.00;97.00;;;;;;6251170;28;20455;-64
2021/12/21 03:41:01;;;;;;;8.27;6.73;;;0.00;96.90;;;;;;6250715;28;20810;-64
2021/12/21 03:44:07;;;;;;;9.30;7.37;;;0.00;96.90;;;;;;6250573;28;20470;-64
2021/12/21 03:47:12;;;;;;;11.30;8.17;;;0.00;96.90;;;;;;6250335;28;20473;-64
2021/12/21 03:50:19;;;;;;;7.10;6.40;;;0.00;97.00;;;;;;6250286;28;20902;-64
2021/12/21 03:53:23;;;;;;;7.97;7.17;;;0.00;97.20;;;;;;6251098;28;20486;-64
2021/12/21 03:56:38;;;;;;;8.40;7.23;;;0.00;97.00;;;;;;6250847;28;21001;-65
2021/12/21 03:59:42;;;;;;;10.67;9.23;;;0.00;97.20;;;;;;6250888;28;20533;-64
2021/12/21 04:02:45;;;;;;;10.30;7.53;;;0.10;97.40;;;;;;6250391;28;20481;-65
2021/12/21 04:05:49;;;;;;;7.60;6.27;;;0.00;97.30;;;;;;6250257;28;20475;-65
2021/12/21 04:08:53;;;;;;;9.30;7.37;;;0.00;97.30;;;;;;6250598;28;20482;-64
2021/12/21 04:11:57;;;;;;;11.50;6.73;;;-0.10;97.40;;;;;;6273126;28;20466;-64
2021/12/21 04:15:02;;;;;;;7.60;6.73;;;-0.20;97.60;;;;;;6268356;28;20483;-64
2021/12/21 04:18:06;;;;;;;9.07;7.70;;;-0.20;97.70;;;;;;6250250;28;20767;-64
2021/12/21 04:21:11;;;;;;;7.87;6.93;;;-0.20;97.70;;;;;;6250195;28;20475;-64
2021/12/21 04:24:16;;;;;;;11.00;6.30;;;-0.30;97.70;;;;;;6245685;28;20486;-64
2021/12/21 04:27:20;;;;;;;10.80;6.60;;;-0.40;97.80;;;;;;6249819;28;20976;-64
2021/12/21 04:30:23;;;;;;;8.10;6.47;;;-0.30;98.10;;;;;;6250267;28;20529;-64
2021/12/21 04:33:26;;;;;;;9.13;7.37;;;-0.30;98.10;;;;;;6252023;28;20483;-64
2021/12/21 04:36:30;;;;;;;8.53;7.37;;;-0.30;98.00;;;;;;6255456;28;20475;-64
2021/12/21 04:39:40;;;;;;;8.90;6.63;;;-0.30;98.00;;;;;;6255476;28;20470;-64
2021/12/21 04:42:43;;;;;;;8.73;6.73;;;-0.20;98.00;;;;;;6254882;28;20486;-64
2021/12/21 04:45:47;;;;;;;6.77;6.03;;;-0.30;98.10;;;;;;6255131;28;20467;-64
2021/12/21 04:48:50;;;;;;;9.50;8.00;;;-0.30;97.90;;;;;;6254927;28;20868;-64
2021/12/21 04:51:54;;;;;;;7.60;6.90;;;-0.30;98.00;;;;;;6254783;28;20813;-64
2021/12/21 04:54:58;;;;;;;9.03;7.20;;;-0.30;98.00;;;;;;6254271;28;20819;-65
2021/12/21 04:58:02;;;;;;;8.47;7.30;;;-0.40;98.00;;;;;;6254602;28;20474;-64
2021/12/21 05:01:05;;;;;;;8.13;7.10;;;-0.40;98.20;;;;;;6255207;28;20470;-64
2021/12/21 05:04:08;;;;;;;7.70;7.00;;;-0.40;98.40;;;;;;6260962;28;20986;-64
2021/12/21 05:07:15;;;;;;;10.53;7.63;;;-0.40;98.40;;;;;;6263757;28;20471;-64
2021/12/21 05:10:20;;;;;;;11.20;6.73;;;-0.50;98.30;;;;;;6274469;28;20470;-64
2021/12/21 05:13:25;;;;;;;9.10;7.50;;;-0.50;98.30;;;;;;6283826;28;20806;-64
2021/12/21 05:16:29;;;;;;;9.50;7.07;;;-0.50;98.30;;;;;;6260769;28;20783;-64
2021/12/21 05:19:32;;;;;;;9.30;7.57;;;-0.50;98.50;;;;;;6260061;28;20470;-64
2021/12/21 05:22:35;;;;;;;7.53;6.70;;;-0.50;98.40;;;;;;6259898;28;20613;-64
2021/12/21 05:25:41;;;;;;;11.30;7.27;;;-0.50;98.50;;;;;;6258054;28;20620;-64
2021/12/21 05:28:44;;;;;;;7.77;6.97;;;-0.50;98.40;;;;;;6254452;28;20487;-64
2021/12/21 05:31:47;;;;;;;10.60;8.23;;;-0.50;98.30;;;;;;6254087;28;21005;-64
2021/12/21 05:34:50;;;;;;;13.03;11.00;;;-0.50;98.20;;;;;;6253998;28;20517;-64
2021/12/21 05:37:58;;;;;;;13.93;10.60;;;-0.60;98.10;;;;;;6254018;28;20435;-64
2021/12/21 05:41:06;;;;;;;16.97;11.20;;;-0.50;98.20;;;;;;6254154;28;20452;-65
2021/12/21 05:44:09;;;;;;;11.30;9.53;;;-0.60;98.20;;;;;;6253348;28;20520;-65
2021/12/21 05:47:12;;;;;;;15.33;8.60;;;-0.60;98.30;;;;;;6253194;28;20487;-64
2021/12/21 05:50:19;;;;;;;14.40;9.90;;;-0.70;98.40;;;;;;6253845;28;20556;-64
2021/12/21 05:53:22;;;;;;;12.70;9.30;;;-0.80;98.60;;;;;;6253420;28;20467;-64
2021/12/21 05:56:27;;;;;;;9.57;7.67;;;-0.70;98.50;;;;;;6253621;28;20481;-64
2021/12/21 05:59:30;;;;;;;10.80;8.60;;;-0.70;98.40;;;;;;6253410;28;20475;-64
2021/12/21 06:02:34;;;;;;;8.37;7.50;;;-0.70;98.70;;;;;;6253157;28;20975;-64
2021/12/21 06:05:37;;;;;;;7.97;7.17;;;-0.80;98.40;;;;;;6252981;28;20501;-64
2021/12/21 06:08:41;;;;;;;10.30;7.67;;;-0.80;98.30;;;;;;6253216;28;20470;-64
2021/12/21 06:11:56;;;;;;;9.13;8.20;;;-0.70;98.40;;;;;;6274419;28;20474;-64
2021/12/21 06:15:18;;;;;;;11.63;7.20;;;-0.70;98.40;;;;;;6271438;28;20482;-64
2021/12/21 06:28:24;;;;;;;7.97;6.53;;;-0.90;99.00;;;;;;6250338;28;20475;-64
2021/12/21 06:31:28;;;;;;;8.50;6.47;;;-0.90;99.10;;;;;;6252207;28;20479;-65
2021/12/21 06:34:32;;;;;;;11.40;7.50;;;-0.90;99.30;;;;;;6252598;28;20478;-64
2021/12/21 06:37:35;;;;;;;9.40;6.80;;;-0.90;99.40;;;;;;6252457;28;20467;-64
2021/12/21 06:40:40;;;;;;;12.07;7.90;;;-0.90;99.50;;;;;;6252522;28;20501;-64
2021/12/21 06:43:45;;;;;;;15.17;10.63;;;-0.80;99.30;;;;;;6252157;28;20563;-64
2021/12/21 06:47:05;;;;;;;13.87;8.20;;;-0.80;99.20;;;;;;6252344;28;20467;-65
2021/12/21 06:53:29;;;;;;;11.70;8.53;;;-0.80;99.00;;;;;;6231478;28;20467;-64
2021/12/21 06:56:32;;;;;;;7.40;6.70;;;-0.80;99.00;;;;;;6252948;28;20485;-65
2021/12/21 06:59:38;;;;;;;9.00;7.20;;;-0.80;99.10;;;;;;6252475;28;20466;-64
2021/12/21 07:02:42;;;;;;;9.17;8.27;;;-0.80;99.10;;;;;;6252533;28;20474;-64
2021/12/21 07:05:47;;;;;;;9.93;8.13;;;-0.80;99.50;;;;;;6252372;28;20486;-65
2021/12/21 07:08:59;;;;;;;12.23;9.70;;;-0.70;99.20;;;;;;6252242;28;20935;-64
2021/12/21 07:12:22;;;;;;;8.43;6.30;;;-0.70;99.10;;;;;;6275240;28;20536;-64
2021/12/21 07:18:48;;;;;;;12.50;7.53;;;-0.70;98.80;;;;;;6251688;28;20819;-65
2021/12/21 07:21:52;;;;;;;10.10;7.20;;;-0.60;99.00;;;;;;6251703;28;20479;-64
2021/12/21 07:24:55;;;;;;;10.90;6.90;;;-0.40;99.10;;;;;;6251419;28;20475;-64
2021/12/21 07:27:58;;;;;;;9.90;6.43;;;-0.30;98.90;;;;;;6250721;28;20478;-64
2021/12/21 07:31:03;;;;;;;13.83;10.27;;;-0.30;98.70;;;;;;6251141;28;20486;-64
2021/12/21 07:34:06;;;;;;;9.07;7.30;;;-0.20;98.50;;;;;;6250727;28;20486;-64
2021/12/21 07:37:10;;;;;;;9.60;6.60;;;-0.10;98.30;;;;;;6251711;28;20482;-64
2021/12/21 07:40:14;;;;;;;11.97;7.60;;;0.10;98.40;;;;;;6251330;28;21382;-65
2021/12/21 07:43:17;;;;;;;8.97;7.13;;;0.20;98.50;;;;;;6251630;28;20479;-65
2021/12/21 07:46:21;;;;;;;11.80;8.00;;;0.40;98.30;;;;;;6250712;28;20815;-64
2021/12/21 07:49:25;;;;;;;8.63;7.00;;;0.60;98.00;;;;;;6250534;28;20483;-64
2021/12/21 07:52:28;;;;;;;11.03;7.87;;;0.80;97.70;;;;;;6250981;28;20471;-64
2021/12/21 07:55:32;;;;;;;7.07;6.20;;;1.10;97.10;;;;;;6250962;28;20483;-64
2021/12/21 07:58:37;;;;;;;8.10;5.70;;;1.20;96.70;;;;;;6250937;28;20966;-65
2021/12/21 08:01:42;;;;;;;9.03;7.10;;;1.30;96.50;;;;;;6250610;28;20486;-65
2021/12/21 08:04:45;;;;;;;7.33;6.63;;;1.30;96.30;;;;;;6251078;28;20950;-65
2021/12/21 08:07:54;;;;;;;7.00;5.87;;;1.50;96.30;;;;;;6250442;28;20479;-65
2021/12/21 08:11:11;;;;;;;14.97;7.03;;;1.60;96.40;;;;;;6264319;28;20451;-65
2021/12/21 08:14:14;;;;;;;11.03;7.80;;;1.70;95.50;;;;;;6275413;28;20472;-64
2021/12/21 08:17:20;;;;;;;8.47;7.30;;;1.90;95.40;;;;;;6250925;28;20455;-64
2021/12/21 08:20:23;;;;;;;8.33;6.87;;;2.10;95.10;;;;;;6250730;28;20538;-64
2021/12/21 08:23:27;;;;;;;13.23;6.53;;;2.20;94.60;;;;;;6250124;28;20482;-64
2021/12/21 08:26:30;;;;;;;8.83;7.93;;;2.50;94.50;;;;;;6250235;28;20463;-64
2021/12/21 08:29:33;;;;;;;9.60;8.57;;;2.70;94.20;;;;;;6250427;28;20533;-65
2021/12/21 08:32:38;;;;;;;10.90;7.43;;;2.80;93.90;;;;;;6249903;28;20786;-65
2021/12/21 08:35:41;;;;;;;10.13;6.73;;;3.10;93.60;;;;;;6250272;28;20971;-65
2021/12/21 08:38:45;;;;;;;11.27;7.63;;;3.10;93.10;;;;;;6250817;28;20467;-65
2021/12/21 08:41:51;;;;;;;10.33;8.57;;;3.20;93.20;;;;;;6250484;28;20490;-65
2021/12/21 08:44:56;;;;;;;17.10;12.60;;;3.30;93.40;;;;;;6250167;28;20486;-65
2021/12/21 08:48:01;;;;;;;13.40;9.80;;;3.30;93.50;;;;;;6250119;28;20498;-65
2021/12/21 08:51:06;;;;;;;19.00;13.67;;;3.50;93.80;;;;;;6249610;28;20474;-65
2021/12/21 08:54:11;;;;;;;12.93;11.37;;;3.80;93.50;;;;;;6248573;28;20490;-65
2021/12/21 08:57:14;;;;;;;14.30;10.90;;;4.10;93.20;;;;;;6249461;28;20471;-65
2021/12/21 09:00:18;;;;;;;13.17;11.50;;;4.50;92.80;;;;;;6249624;28;20812;-66
2021/12/21 09:03:23;;;;;;;13.00;11.70;;;4.60;92.00;;;;;;6249336;28;20475;-65
2021/12/21 09:06:26;;;;;;;11.53;9.60;;;4.60;91.60;;;;;;6249717;28;20491;-64
2021/12/21 09:09:30;;;;;;;12.07;10.20;;;4.50;91.70;;;;;;6251875;28;20825;-65
2021/12/21 09:12:33;;;;;;;9.83;8.93;;;4.60;91.70;;;;;;6274307;28;20474;-64
2021/12/21 09:15:36;;;;;;;11.90;8.57;;;4.70;91.90;;;;;;6263003;28;20481;-65
2021/12/21 09:18:41;;;;;;;13.07;9.43;;;5.10;91.80;;;;;;6250397;28;20880;-62
2021/12/21 09:21:44;;;;;;;10.70;9.47;;;5.40;90.60;;;;;;6255695;28;20471;-62
2021/12/21 09:24:48;;;;;;;13.43;9.30;;;5.50;89.20;;;;;;6255317;28;20967;-63
2021/12/21 09:27:51;;;;;;;10.47;8.90;;;4.80;89.50;;;;;;6255365;28;20980;-63
2021/12/21 09:30:54;;;;;;;12.07;9.13;;;4.50;90.20;;;;;;6254529;28;20796;-63
2021/12/21 09:33:59;;;;;;;11.53;8.73;;;4.20;90.50;;;;;;6254231;28;20479;-63
2021/12/21 09:37:03;;;;;;;11.13;9.53;;;4.00;91.20;;;;;;6253738;28;20471;-63
2021/12/21 09:40:09;;;;;;;12.10;10.90;;;3.90;91.60;;;;;;6254082;28;20463;-63
2021/12/21 09:43:13;;;;;;;12.03;9.53;;;3.70;91.80;;;;;;6248822;28;20805;-64
2021/12/21 09:46:16;;;;;;;23.83;9.77;;;3.60;91.40;;;;;;6253565;28;21029;-63
2021/12/21 09:49:21;;;;;;;9.47;8.47;;;3.50;91.50;;;;;;6253628;28;20486;-63
2021/12/21 09:52:29;;;;;;;12.70;9.60;;;3.20;91.90;;;;;;6253469;28;20822;-63
2021/12/21 09:55:32;;;;;;;13.60;9.80;;;3.10;92.40;;;;;;6253634;28;20974;-63
2021/12/21 09:58:36;;;;;;;12.63;9.87;;;3.20;92.50;;;;;;6253475;28;20486;-63
2021/12/21 10:01:39;;;;;;;13.17;8.10;;;3.30;92.20;;;;;;6253217;28;20467;-63
2021/12/21 10:04:48;;;;;;;13.53;7.90;;;3.40;92.10;;;;;;6252856;28;20483;-63
2021/12/21 10:08:00;;;;;;;12.90;9.07;;;3.50;92.20;;;;;;6253129;28;20486;-62
2021/12/21 10:11:06;;;;;;;11.93;8.53;;;3.40;91.60;;;;;;6252937;28;20463;-63
2021/12/21 10:14:09;;;;;;;9.17;8.20;;;3.50;91.70;;;;;;6253648;28;20935;-63
2021/12/21 10:17:13;;;;;;;9.30;8.30;;;3.40;91.30;;;;;;6253317;28;20447;-63
2021/12/21 10:20:31;;;;;;;12.57;8.90;;;3.40;91.30;;;;;;6254018;28;20486;-63
2021/12/21 10:23:38;;;;;;;14.60;7.37;;;3.50;91.00;;;;;;6252790;28;20906;-63
2021/12/21 10:26:41;;;;;;;11.30;8.47;;;3.50;90.80;;;;;;6252985;28;20490;-63
2021/12/21 10:29:46;;;;;;;9.07;7.73;;;3.40;90.80;;;;;;6253121;28;20482;-63
2021/12/21 10:32:52;;;;;;;10.57;7.87;;;3.50;90.60;;;;;;6252416;28;20832;-62
2021/12/21 10:35:59;;;;;;;12.20;9.00;;;3.50;90.50;;;;;;6253074;28;20607;-62
2021/12/21 10:39:03;;;;;;;7.50;6.80;;;3.60;90.50;;;;;;6253072;28;20482;-63
2021/12/21 10:42:09;;;;;;;8.20;7.30;;;3.70;89.80;;;;;;6252685;28;20484;-63
2021/12/21 10:45:12;;;;;;;8.63;7.30;;;3.70;89.80;;;;;;6252596;28;20463;-63
2021/12/21 10:48:19;;;;;;;9.03;7.40;;;3.50;89.60;;;;;;6253577;28;20478;-64
2021/12/21 10:51:23;;;;;;;12.00;6.77;;;3.60;89.70;;;;;;6252864;28;20939;-64
2021/12/21 10:54:28;;;;;;;9.20;7.37;;;3.60;88.90;;;;;;6252617;28;20482;-63
2021/12/21 10:57:33;;;;;;;8.00;6.93;;;3.60;89.20;;;;;;6253112;28;20479;-63
2021/12/21 11:00:40;;;;;;;7.23;6.53;;;3.50;88.60;;;;;;6251717;28;20459;-63
2021/12/21 11:03:49;;;;;;;9.07;6.73;;;3.60;88.30;;;;;;6251373;28;20569;-64
2021/12/21 11:06:56;;;;;;;9.17;7.03;;;3.70;88.30;;;;;;6251915;28;20924;-64
2021/12/21 11:10:03;;;;;;;8.53;6.97;;;3.80;87.60;;;;;;6258521;28;20470;-64
2021/12/21 11:13:08;;;;;;;7.97;6.50;;;3.80;87.10;;;;;;6276320;28;20485;-63
2021/12/21 11:16:13;;;;;;;7.87;7.07;;;3.80;86.90;;;;;;6259999;28;20474;-64
2021/12/21 11:19:19;;;;;;;10.33;6.90;;;4.30;85.90;;;;;;6251270;28;20820;-64
2021/12/21 11:22:26;;;;;;;8.70;7.07;;;5.40;82.40;;;;;;6252040;28;20467;-64
2021/12/21 11:25:29;;;;;;;6.50;5.90;;;5.80;79.70;;;;;;6251506;28;20476;-64
2021/12/21 11:28:36;;;;;;;9.10;7.13;;;5.50;78.00;;;;;;6251873;28;20467;-63
2021/12/21 11:31:42;;;;;;;10.53;7.60;;;5.40;79.20;;;;;;6252252;28;20486;-63
2021/12/21 11:35:08;;;;;;;10.80;7.13;;;7.20;77.00;;;;;;6253913;28;20486;-64
2021/12/21 11:38:14;;;;;;;9.50;7.13;;;10.00;66.40;;;;;;6255262;28;20470;-63
2021/12/21 11:41:18;;;;;;;11.37;7.13;;;13.80;52.90;;;;;;6255905;28;20471;-65
2021/12/21 11:44:28;;;;;;;8.40;7.20;;;16.20;42.90;;;;;;6255303;28;20474;-64
2021/12/21 11:47:36;;;;;;;7.30;6.60;;;18.60;38.50;;;;;;6247504;28;20947;-65
2021/12/21 11:50:41;;;;;;;13.40;8.97;;;21.10;32.50;;;;;;6257466;28;20474;-64
2021/12/21 11:53:47;;;;;;;8.43;7.50;;;23.00;29.50;;;;;;6256229;28;20686;-64
2021/12/21 11:57:02;;;;;;;7.57;6.97;;;23.20;26.70;;;;;;6255174;28;20271;-64
2021/12/21 12:00:12;;;;;;;8.73;7.33;;;20.30;27.80;;;;;;6254960;28;20583;-64
2021/12/21 12:03:20;;;;;;;11.23;8.57;;;18.50;29.20;;;;;;6253550;28;20246;-64
2021/12/21 12:06:24;;;;;;;8.10;7.30;;;16.60;30.70;;;;;;6253550;28;20907;-64
2021/12/21 12:09:31;;;;;;;9.30;6.23;;;16.90;32.80;;;;;;6254299;28;20471;-64
2021/12/21 12:12:34;;;;;;;6.67;5.53;;;19.30;30.50;;;;;;6276299;28;20463;-64
2021/12/21 12:15:43;;;;;;;6.30;5.80;;;21.40;27.60;;;;;;6276288;28;20227;-64
2021/12/21 12:18:49;;;;;;;5.87;5.33;;;20.00;27.20;;;;;;6275473;28;20401;-64
2021/12/21 12:21:55;;;;;;;11.87;5.23;;;18.00;28.20;;;;;;6275602;28;20793;-64
2021/12/21 12:25:00;;;;;;;5.90;5.40;;;16.10;29.60;;;;;;6274778;28;20981;-64
2021/12/21 12:28:05;;;;;;;5.10;4.70;;;14.70;31.60;;;;;;6275038;28;20532;-64
2021/12/21 12:31:08;;;;;;;5.77;4.67;;;16.40;31.90;;;;;;6275418;28;20949;-64
2021/12/21 12:34:11;;;;;;;4.93;4.43;;;19.00;29.10;;;;;;6274956;28;20482;-64
2021/12/21 12:37:19;;;;;;;5.23;4.83;;;21.30;27.60;;;;;;6275627;28;20314;-64
2021/12/21 12:40:26;;;;;;;7.97;5.67;;;22.90;26.10;;;;;;6274975;28;20227;-64
2021/12/21 12:43:32;;;;;;;7.70;5.30;;;23.80;24.20;;;;;;6274850;28;20296;-64
2021/12/21 12:46:36;;;;;;;6.53;5.50;;;24.50;23.70;;;;;;6274506;28;20640;-64
2021/12/21 12:49:48;;;;;;;6.20;5.60;;;24.30;23.30;;;;;;6274832;28;20582;-64
2021/12/21 12:52:54;;;;;;;8.00;5.80;;;25.10;23.20;;;;;;6274568;28;20232;-64
2021/12/21 12:56:00;;;;;;;9.03;6.10;;;25.70;22.60;;;;;;6275420;28;20726;-64
2021/12/21 12:59:15;;;;;;;6.73;6.03;;;26.00;22.00;;;;;;6280428;28;20204;-64
2021/12/21 13:02:18;;;;;;;5.63;5.20;;;26.10;21.40;;;;;;6279586;28;20227;-64
2021/12/21 13:05:26;;;;;;;6.90;6.30;;;24.60;21.70;;;;;;6279255;28;20234;-64
2021/12/21 13:08:30;;;;;;;7.67;6.87;;;21.80;23.20;;;;;;6279319;28;20223;-64
2021/12/21 13:11:37;;;;;;;9.57;6.10;;;17.90;25.90;;;;;;6259597;28;20258;-64
2021/12/21 13:14:40;;;;;;;6.60;5.90;;;16.80;28.10;;;;;;6254391;28;20486;-64
2021/12/21 13:17:43;;;;;;;5.70;5.20;;;17.20;28.50;;;;;;6254271;28;20482;-64
2021/12/21 13:20:49;;;;;;;5.87;5.37;;;18.20;27.70;;;;;;6254238;28;20503;-64
2021/12/21 13:24:01;;;;;;;6.17;5.53;;;19.10;26.50;;;;;;6254181;28;20484;-64
2021/12/21 13:27:13;;;;;;;5.80;5.30;;;18.80;26.50;;;;;;6254254;28;20475;-64
2021/12/21 13:30:20;;;;;;;6.33;5.60;;;17.20;27.40;;;;;;6254521;28;20479;-64
2021/12/21 13:33:25;;;;;;;7.53;6.23;;;16.10;29.10;;;;;;6254461;28;20467;-64
2021/12/21 13:36:34;;;;;;;6.07;5.50;;;16.50;29.10;;;;;;6254481;28;20466;-64
2021/12/21 13:39:39;;;;;;;7.70;6.60;;;17.00;28.60;;;;;;6253800;28;20486;-64
2021/12/21 13:42:44;;;;;;;9.47;5.90;;;17.30;28.50;;;;;;6254121;28;20479;-64
2021/12/21 13:45:57;;;;;;;7.67;5.10;;;18.00;28.20;;;;;;6253578;28;20482;-64
2021/12/21 13:49:01;;;;;;;6.90;5.60;;;18.50;27.60;;;;;;6253688;28;20470;-65
2021/12/21 13:52:05;;;;;;;9.03;7.07;;;19.20;27.20;;;;;;6253593;28;20483;-65
2021/12/21 13:55:21;;;;;;;7.00;5.70;;;19.80;26.50;;;;;;6253390;28;20482;-65
2021/12/21 13:58:25;;;;;;;8.47;5.83;;;19.90;26.10;;;;;;6253541;28;20498;-65
2021/12/21 14:01:30;;;;;;;5.40;4.90;;;19.20;26.60;;;;;;6253606;28;20471;-65
2021/12/21 14:04:40;;;;;;;9.23;6.90;;;19.40;26.50;;;;;;6252880;28;20817;-65
2021/12/21 14:07:44;;;;;;;6.73;5.20;;;18.80;26.90;;;;;;6252423;28;20475;-65
2021/12/21 14:10:49;;;;;;;6.17;5.57;;;18.30;27.10;;;;;;6266081;28;20485;-65
2021/12/21 14:13:55;;;;;;;7.20;5.80;;;18.20;27.70;;;;;;6277857;28;20474;-65
2021/12/21 14:16:58;;;;;;;6.20;5.60;;;17.70;27.70;;;;;;6255112;28;20842;-65
2021/12/21 14:20:05;;;;;;;5.87;5.17;;;16.80;28.30;;;;;;6253201;28;20457;-65
2021/12/21 14:23:08;;;;;;;6.63;6.03;;;16.10;28.90;;;;;;6252952;28;20470;-65
2021/12/21 14:26:14;;;;;;;9.10;6.97;;;15.40;29.90;;;;;;6253131;28;20451;-63
2021/12/21 14:29:23;;;;;;;6.47;5.87;;;14.80;30.80;;;;;;6253391;28;20455;-64
2021/12/21 14:32:41;;;;;;;12.83;5.57;;;13.80;30.90;;;;;;6252384;28;20459;-64
2021/12/21 14:35:45;;;;;;;7.40;5.30;;;12.70;32.40;;;;;;6252766;28;20483;-63
2021/12/21 14:38:53;;;;;;;9.60;6.50;;;11.50;34.20;;;;;;6252295;28;20467;-65
2021/12/21 14:41:58;;;;;;;8.10;6.60;;;10.60;35.80;;;;;;6253967;28;20475;-64
2021/12/21 14:45:04;;;;;;;6.77;6.10;;;9.60;38.70;;;;;;6254357;28;20479;-64
2021/12/21 14:48:15;;;;;;;6.90;5.40;;;8.90;40.40;;;;;;6253131;28;20467;-64
2021/12/21 14:51:19;;;;;;;5.63;5.13;;;8.30;41.80;;;;;;6253246;28;20487;-64
2021/12/21 14:54:26;;;;;;;6.33;5.70;;;7.90;43.00;;;;;;6252121;28;20475;-64
2021/12/21 14:57:31;;;;;;;11.93;7.57;;;7.50;44.00;;;;;;6252308;28;20474;-64
2021/12/21 15:00:38;;;;;;;7.43;6.47;;;7.10;44.90;;;;;;6252378;28;20475;-64
2021/12/21 15:03:42;;;;;;;9.83;7.43;;;6.70;45.80;;;;;;6251507;28;20501;-64
2021/12/21 15:06:46;;;;;;;6.93;6.33;;;6.50;47.10;;;;;;6252318;28;20482;-64
2021/12/21 15:09:50;;;;;;;6.53;5.90;;;6.20;47.70;;;;;;6251977;28;20479;-64
2021/12/21 15:12:53;;;;;;;10.43;7.33;;;6.10;48.40;;;;;;6252109;28;20487;-64
2021/12/21 15:15:58;;;;;;;8.63;6.27;;;5.90;49.10;;;;;;6251678;28;20470;-64
2021/12/21 15:19:01;;;;;;;11.90;7.27;;;5.70;49.90;;;;;;6251291;28;20478;-64
2021/12/21 15:22:05;;;;;;;9.93;7.47;;;5.50;51.10;;;;;;6251719;28;20463;-64
2021/12/21 15:25:10;;;;;;;9.17;6.90;;;5.40;51.80;;;;;;6251465;28;21024;-64
2021/12/21 15:28:13;;;;;;;8.80;7.90;;;5.40;52.70;;;;;;6251363;28;20479;-64
2021/12/21 15:31:17;;;;;;;8.40;6.77;;;5.30;53.40;;;;;;6251678;28;20482;-64
2021/12/21 15:34:21;;;;;;;8.13;6.93;;;5.20;54.40;;;;;;6251192;28;20617;-64
2021/12/21 15:37:24;;;;;;;8.43;7.43;;;5.20;55.20;;;;;;6251417;28;20516;-64
2021/12/21 15:40:27;;;;;;;9.70;8.70;;;5.10;55.80;;;;;;6252129;28;20474;-64
2021/12/21 15:43:36;;;;;;;11.60;8.23;;;5.00;56.50;;;;;;6250997;28;20827;-64
2021/12/21 15:46:40;;;;;;;23.47;8.43;;;5.00;57.40;;;;;;6251138;28;20483;-64
2021/12/21 15:49:45;;;;;;;11.47;8.27;;;4.90;58.00;;;;;;6251679;28;20477;-64
2021/12/21 15:52:48;;;;;;;14.37;8.20;;;4.80;58.70;;;;;;6251320;28;20475;-64
2021/12/21 15:55:52;;;;;;;10.30;8.70;;;4.90;59.60;;;;;;6250783;28;20513;-64
2021/12/21 15:58:55;;;;;;;13.90;9.27;;;4.90;59.80;;;;;;6250679;28;20471;-64
2021/12/21 16:02:00;;;;;;;13.33;8.77;;;4.80;60.50;;;;;;6241230;28;20447;-64
2021/12/21 16:05:04;;;;;;;8.63;7.73;;;4.80;61.40;;;;;;6250389;28;20824;-64
2021/12/21 16:08:07;;;;;;;11.17;7.83;;;4.80;62.30;;;;;;6250668;28;20454;-63
2021/12/21 16:11:10;;;;;;;10.43;9.23;;;4.70;62.40;;;;;;6250777;28;20800;-64
2021/12/21 16:14:14;;;;;;;11.97;8.47;;;4.80;63.00;;;;;;6250922;28;20489;-64
2021/12/21 16:17:19;;;;;;;17.93;9.00;;;4.80;63.40;;;;;;6250245;28;20457;-65
2021/12/21 16:20:22;;;;;;;14.63;9.13;;;4.80;63.80;;;;;;6250985;28;20473;-64
2021/12/21 16:23:25;;;;;;;13.80;9.73;;;4.80;64.20;;;;;;6251820;28;20462;-64
2021/12/21 16:26:28;;;;;;;18.30;9.60;;;4.80;64.60;;;;;;6251116;28;20466;-64
2021/12/21 16:29:32;;;;;;;14.40;9.57;;;4.70;65.00;;;;;;6250078;28;20787;-64
2021/12/21 16:32:36;;;;;;;12.27;8.30;;;4.70;65.40;;;;;;6250068;28;20780;-64
2021/12/21 16:35:41;;;;;;;11.23;7.33;;;4.70;65.50;;;;;;6250220;28;20946;-64
2021/12/21 16:38:44;;;;;;;12.47;8.93;;;4.70;65.70;;;;;;6250692;28;20833;-64